Tiempo atmosférico en la estación meteorológica de Caldes De Montbui, Barcelona (168 m.)



Fecha
DESCASC
Temp. máxima en grados centígrados (hora)
DESCASC
Temp. mínima en grados centígrados (hora)
DESCASC
Temp. media en grados centígrados
DESCASC
Racha de viento máxima en m/sg (hora)
DESCASC
Velocidad máxima media en intervalos de 10 minutos(hora)
DESCASC
Precipitaciones diarias en mm
DESCASC
Precipitaciones de 00:00 a 06:00 en mm
DESCASC
Precipitaciones de 06:00 a 12:00 en mm
DESCASC
Precipitaciones de 12:00 a 18:00 en mm
DESCASC
Precipitaciones de 18:00 a 24:00 en mm
DESCASC
20-05-2018 24.4 (13:20) 10.6 (06:30) 17.5 8.33 (17:50) 5.28 (17:50) 1 0 0 1 0
19-05-2018 24.9 (12:50) 9.3 (06:00) 17.1 7.5 (14:10) 5 (14:10) 4.4 0 0 1.8 2.6
18-05-2018 22.3 (11:50) 10.5 (00:00) 16.4 6.67 (17:00) 3.61 (13:00) 0 0 0 0 0
17-05-2018 24.5 (13:40) 10.5 (00:00) 17.5 9.72 (14:10) 6.11 (14:10) 0 0 0 0 0
16-05-2018 23.7 (15:20) 8.8 (00:00) 16.3 5.83 (17:20) 4.17 (17:20) 0 0 0 0 0
15-05-2018 23.4 (14:50) 5.4 (00:00) 14.4 10 (12:40) 6.11 (12:40) 0 0 0 0 0
14-05-2018 18.7 (14:00) 4.9 (00:00) 11.8 8.33 (13:30) 5.56 (14:10) 0 0 0 0 0
13-05-2018 15.2 (13:20) 8.1 (00:00) 11.7 9.72 (03:50) 4.44 (03:50) 4 3.4 0 0.2 0.4
12-05-2018 20.1 (11:50) 9.7 (00:00) 14.9 6.39 (15:20) 4.17 (15:30) 15.6 0 0 0 15.6
11-05-2018 24.2 (16:40) 11.3 (06:50) 17.8 8.89 (14:40) 5 (14:40) 0 0 0 0 0
10-05-2018 20 (11:50) 11.7 (00:00) 15.8 6.67 (12:30) 4.17 (16:10) 0 0 0 0 0
09-05-2018 22.9 (14:30) 10 (00:00) 16.4 6.39 (14:50) 3.61 (13:50) 2 0 0 2 0
08-05-2018 24.3 (14:50) 12.2 (00:00) 18.2 8.33 (16:50) 3.89 (15:20) 0.8 0 0 0.8 0
07-05-2018 24.5 (14:10) 13.3 (00:00) 18.9 7.22 (14:30) 5 (14:30) 2 0.2 0 0 1.8
06-05-2018 23.3 (17:10) 8.9 (00:00) 16.1 6.67 (17:50) 4.72 (17:50) 3.8 0 3.4 0.2 0.2
05-05-2018 20.3 (19:10) 11 (00:00) 15.6 4.44 (11:40) 3.06 (11:40) 3.2 0 2.6 0.6 0
04-05-2018 19.5 (17:40) 10.2 (00:00) 14.8 7.5 (06:20) 4.17 (06:20) 0 0 0 0 0
03-05-2018 21.7 (14:10) 6 (00:00) 13.9 7.5 (12:40) 4.72 (13:00) 0.6 0 0 0.6 0
02-05-2018 19.2 (15:00) 1.8 (00:00) 10.5 8.33 (16:20) 5.56 (16:20) 0 0 0 0 0
01-05-2018 16.8 (15:10) 4.8 (23:30) 10.8 6.11 (17:00) 3.33 (16:30) 9.8 0 8.4 0.8 0.6
30-04-2018 18.3 (14:40) 4.2 (00:00) 11.2 8.06 (14:30) 4.72 (14:30) 0 0 0 0 0
29-04-2018 17.4 (14:30) 6.8 (00:00) 12.1 15.28 (15:30) 9.72 (15:40) 9.4 0 1.4 7.2 0.8
28-04-2018 22.5 (14:20) 10.6 (00:00) 16.6 6.94 (14:40) 4.72 (16:10) 0 0 0 0 0
27-04-2018 25.1 (14:20) 10 (00:00) 17.6 7.78 (15:00) 5.28 (15:00) 0 0 0 0 0
26-04-2018 24.2 (14:30) 10.4 (00:00) 17.3 8.33 (14:50) 6.39 (14:50) 0 0 0 0 0
25-04-2018 26.5 (13:50) 9.8 (00:00) 18.2 7.5 (14:10) 4.44 (14:00) 0 0 0 0 0
24-04-2018 25.4 (14:20) 10.5 (00:00) 17.9 6.67 (15:50) 5 (15:50) 0 0 0 0 0
23-04-2018 24.2 (14:40) 9.5 (00:00) 16.9 5.83 (15:20) 4.44 (16:50) 0 0 0 0 0
22-04-2018 24.2 (14:40) 8.4 (00:00) 16.3 8.61 (16:10) 5.83 (16:00) 0 0 0 0 0

Gráficas

Temp. máximas Temp. mínimas Temp. medias Precipitaciones Rachas de viento máximas Velocidades máximas media en intervalos de 10 minutos

Datos horarios

Fecha y hora oficial Temperatura (ºC) Velocidad del viento (km/h) Dirección del viento Racha (km/h) Dirección de racha Precipitación (mm) Presión (hPa) Tendencia (hPa) Humedad (%)
2018-05-21 23:00:00 15.7 7 Noroeste 11 Oeste 0 -- -- 87
2018-05-21 22:00:00 15.4 6 Noroeste 12 Oeste 0 -- -- 87
2018-05-21 21:00:00 15.9 3 Oeste 13 Sudeste 0 -- -- 84
2018-05-21 20:00:00 18.2 10 Sudeste 21 Sudeste 0 -- -- 72
2018-05-21 19:00:00 21.1 14 Sudeste 20 Sudeste 0 -- -- 60
2018-05-21 18:00:00 22.7 12 Sudeste 24 Sur 0 -- -- 56
2018-05-21 17:00:00 22.7 14 Sur 22 Sur 0 -- -- 53
2018-05-21 16:00:00 22.9 14 Sur 22 Sudeste 0 -- -- 57
2018-05-21 15:00:00 23.1 14 Sur 29 Sudeste 0 -- -- 57
2018-05-21 14:00:00 23.7 8 Sudeste 21 Este 0 -- -- 53
2018-05-21 13:00:00 22.7 8 Este 17 Este 0 -- -- 48
2018-05-21 12:00:00 21.6 6 Este 17 Sudeste 0 -- -- 54
2018-05-21 11:00:00 19.8 6 Sudeste 13 Este 0 -- -- 68
2018-05-21 10:00:00 17.9 3 Sur 7 Noroeste 0 -- -- 76
2018-05-21 09:00:00 14.4 0 Calma 8 Sudeste 0 -- -- 95
2018-05-21 08:00:00 12.2 6 Noroeste 8 Noroeste 0 -- -- 98
2018-05-21 07:00:00 11.6 6 Noroeste 12 Noroeste 0 -- -- 96
2018-05-21 06:00:00 10.9 7 Noroeste 11 Noroeste 0 -- -- 97
2018-05-21 05:00:00 11 5 Noroeste 11 Noroeste 0 -- -- 96
2018-05-21 04:00:00 10.9 3 Nordeste 12 Noroeste 0 -- -- 96
2018-05-21 03:00:00 11.1 8 Noroeste 10 Oeste 0 -- -- 96
2018-05-21 02:00:00 11.2 3 Noroeste 8 Noroeste 0 -- -- 96
2018-05-21 01:00:00 11.6 6 Oeste 10 Noroeste 0 -- -- 94
2018-05-21 00:00:00 12.4 8 Noroeste 16 Noroeste 0 -- -- 94
2018-05-20 23:00:00 12.3 8 Noroeste 9 Noroeste 0 -- -- 94
2018-05-20 22:00:00 13 4 Noroeste 8 Norte 0 -- -- 91
2018-05-20 21:00:00 15.8 5 Noroeste 13 Oeste 0 -- -- 80
2018-05-20 20:00:00 16.8 10 Noroeste 16 Noroeste 0 -- -- 76
2018-05-20 19:00:00 17.9 9 Noroeste 18 Oeste 0 -- -- 71
2018-05-20 18:00:00 17.6 14 Noroeste 30 Noroeste 0 -- -- 77
2018-05-20 17:00:00 19.1 6 Oeste 17 Sur 1 -- -- 84
2018-05-20 16:00:00 20.8 11 Sur 20 Sur 0 -- -- 68
2018-05-20 15:00:00 20.7 9 Sudoeste 15 Sudoeste 0 -- -- 64
2018-05-20 14:00:00 21.4 10 Norte 23 Norte 0 -- -- 54
2018-05-20 13:00:00 24.3 8 Sudeste 19 Sudeste 0 -- -- 50
2018-05-20 12:00:00 22.8 5 Sudeste 12 Sudeste 0 -- -- 58
2018-05-20 11:00:00 20.9 6 Sudeste 12 Sudeste 0 -- -- 67
2018-05-20 10:00:00 18.4 5 Este 9 Este 0 -- -- 74
2018-05-20 09:00:00 16.1 4 Este 8 Este 0 -- -- 86
2018-05-20 08:00:00 13.7 3 Norte 12 Noroeste 0 -- -- 94
2018-05-20 07:00:00 10.9 8 Noroeste 14 Noroeste 0 -- -- 97
2018-05-20 06:00:00 11.1 8 Noroeste 14 Noroeste 0 -- -- 97
2018-05-20 05:00:00 10.9 8 Noroeste 11 Noroeste 0 -- -- 97
2018-05-20 04:00:00 10.9 6 Noroeste 13 Oeste 0 -- -- 95
2018-05-20 03:00:00 12.3 7 Noroeste 12 Noroeste 0 -- -- 95
2018-05-20 02:00:00 12.7 9 Noroeste 14 Noroeste 0 -- -- 95
2018-05-20 01:00:00 13.6 8 Noroeste 12 Noroeste 0 -- -- 96
2018-05-20 00:00:00 13.7 3 Noroeste 8 Noroeste 0 -- -- 97
2018-05-19 23:00:00 14.3 0 Calma 7 Sudeste 0 -- -- 95
2018-05-19 22:00:00 14.7 3 Sudeste 9 Noroeste 0 -- -- 94
2018-05-19 21:00:00 15.3 5 Noroeste 9 Oeste 0.2 -- -- 93
2018-05-19 20:00:00 15.2 7 Oeste 18 Noroeste 0.2 -- -- 93
2018-05-19 19:00:00 15.6 11 Noroeste 15 Oeste 2.2 -- -- 94
2018-05-19 18:00:00 15.9 11 Oeste 16 Noroeste 1.2 -- -- 94
2018-05-19 17:00:00 17.1 9 Noroeste 21 Noroeste 0.6 -- -- 86
2018-05-19 16:00:00 20.9 11 Noroeste 18 Noroeste 0 -- -- 67
2018-05-19 15:00:00 19.2 8 Norte 27 Sur 0 -- -- 72
2018-05-19 14:00:00 24.4 15 Sudeste 23 Sudeste 0 -- -- 50
2018-05-19 13:00:00 24.3 7 Sudeste 18 Sudeste 0 -- -- 49
2018-05-19 12:00:00 23.5 10 Sudeste 16 Sudeste 0 -- -- 56
2018-05-19 11:00:00 21.6 9 Este 14 Este 0 -- -- 62
2018-05-19 10:00:00 19.5 4 Este 9 Este 0 -- -- 72
2018-05-19 09:00:00 16.3 3 Sudeste 6 Sudeste 0 -- -- 83
2018-05-19 08:00:00 13.3 2 Noroeste 6 Noroeste 0 -- -- 97
2018-05-19 07:00:00 10.2 0 Calma 11 Noroeste 0 -- -- 97
2018-05-19 06:00:00 9.3 4 Noroeste 10 Noroeste 0 -- -- 96
2018-05-19 05:00:00 10.6 4 Noroeste 11 Oeste 0 -- -- 97
2018-05-19 04:00:00 10.5 5 Noroeste 9 Oeste 0 -- -- 96
2018-05-19 03:00:00 10.9 6 Noroeste 11 Noroeste 0 -- -- 96
2018-05-19 02:00:00 11.3 8 Noroeste 11 Noroeste 0 -- -- 96
2018-05-19 01:00:00 11.8 8 Noroeste 10 Noroeste 0 -- -- 96
2018-05-19 00:00:00 12.6 6 Noroeste 10 Oeste 0 -- -- 96
2018-05-18 23:00:00 13.2 7 Noroeste 11 Oeste 0 -- -- 95
2018-05-18 22:00:00 14.2 4 Noroeste 8 Noroeste 0 -- -- 92
2018-05-18 21:00:00 17.1 4 Sudoeste 6 Sudoeste 0 -- -- 85
2018-05-18 20:00:00 18 3 Sudoeste 10 Noroeste 0 -- -- 84
2018-05-18 19:00:00 17.4 4 Noroeste 12 Noroeste 0 -- -- 86
2018-05-18 18:00:00 17.8 3 Noroeste 15 Noroeste 0 -- -- 80
2018-05-18 17:00:00 18.4 12 Noroeste 24 Noroeste 0 -- -- 70
2018-05-18 16:00:00 20.6 6 Sudeste 13 Este 0 -- -- 69
2018-05-18 15:00:00 19.7 6 Este 15 Sudeste 0 -- -- 72
2018-05-18 14:00:00 19.4 8 Sudeste 21 Sudeste 0 -- -- 70
2018-05-18 13:00:00 19.8 13 Sudeste 18 Sur 0 -- -- 68
2018-05-18 12:00:00 22 6 Sudeste 18 Sudeste 0 -- -- 59
2018-05-18 11:00:00 21.4 7 Nordeste 19 Este 0 -- -- 58
2018-05-18 10:00:00 19.6 9 Sudeste 18 Sudeste 0 -- -- 66
2018-05-18 09:00:00 16.7 3 Sudeste 7 Sudeste 0 -- -- 78
2018-05-18 08:00:00 14 2 Norte 12 Noroeste 0 -- -- 91
2018-05-18 07:00:00 10.9 5 Noroeste 11 Noroeste 0 -- -- 94
2018-05-18 06:00:00 11.1 8 Noroeste 14 Noroeste 0 -- -- 96
2018-05-18 05:00:00 11.3 2 Noroeste 4 Oeste 0 -- -- 94
2018-05-18 04:00:00 13.1 3 Noroeste 6 Oeste 0 -- -- 92
2018-05-18 03:00:00 14.1 3 Sur 5 Sur 0 -- -- 90
2018-05-18 02:00:00 14.7 0 Calma 5 Oeste 0 -- -- 88
2018-05-18 01:00:00 15.6 0 Calma 8 Sudoeste 0 -- -- 84
2018-05-18 00:00:00 15.2 6 Oeste 9 Oeste 0 -- -- 85
2018-05-17 23:00:00 15.9 3 Norte 6 Oeste 0 -- -- 84
2018-05-17 22:00:00 16.6 0 Calma 4 Oeste 0 -- -- 84
2018-05-17 21:00:00 17.5 0 Calma 4 Oeste 0 -- -- 77
2018-05-17 20:00:00 18.2 3 Sudeste 13 Sudeste 0 -- -- 68
2018-05-17 19:00:00 19 9 Sudeste 19 Sudeste 0 -- -- 62
2018-05-17 18:00:00 20.2 11 Sudeste 23 Sudeste 0 -- -- 57
2018-05-17 17:00:00 21.6 14 Sudeste 29 Sudeste 0 -- -- 54
2018-05-17 16:00:00 22.5 13 Sudeste 28 Sudeste 0 -- -- 51
2018-05-17 15:00:00 21.7 14 Este 35 Este 0 -- -- 50
2018-05-17 14:00:00 23.5 22 Sudeste 31 Sudeste 0 -- -- 49
2018-05-17 13:00:00 23.9 8 Sudeste 22 Sur 0 -- -- 47
2018-05-17 12:00:00 22.8 8 Sur 18 Sudeste 0 -- -- 50
2018-05-17 11:00:00 21.6 5 Sudeste 13 Este 0 -- -- 64
2018-05-17 10:00:00 19.6 5 Este 9 Este 0 -- -- 73
2018-05-17 09:00:00 17.1 5 Sudeste 8 Sudeste 0 -- -- 81
2018-05-17 08:00:00 14.3 3 Oeste 9 Noroeste 0 -- -- 90
2018-05-17 07:00:00 11.7 5 Noroeste 10 Noroeste 0 -- -- 93
2018-05-17 06:00:00 11.6 8 Noroeste 10 Noroeste 0 -- -- 97
2018-05-17 05:00:00 10.8 8 Noroeste 10 Oeste 0 -- -- 95
2018-05-17 04:00:00 12.4 3 Noroeste 9 Noroeste 0 -- -- 93
2018-05-17 03:00:00 13.1 8 Noroeste 11 Oeste 0 -- -- 94
2018-05-17 02:00:00 13.1 5 Noroeste 9 Oeste 0 -- -- 94
2018-05-17 01:00:00 13.1 4 Noroeste 10 Noroeste 0 -- -- 94
2018-05-17 00:00:00 13.1 9 Noroeste 12 Oeste 0 -- -- 94
2018-05-16 23:00:00 13.1 6 Noroeste 9 Noroeste 0 -- -- 92
2018-05-16 22:00:00 13.9 4 Noroeste 7 Oeste 0 -- -- 91
2018-05-16 21:00:00 17.4 4 Sudeste 8 Sudeste 0 -- -- 77
2018-05-16 20:00:00 19.6 6 Sudeste 13 Sudeste 0 -- -- 72
2018-05-16 19:00:00 20.4 10 Sudeste 19 Sudeste 0 -- -- 67
2018-05-16 18:00:00 20.8 12 Sudeste 21 Sudeste 0 -- -- 69
2018-05-16 17:00:00 20.8 13 Sudeste 19 Sudeste 0 -- -- 68
2018-05-16 16:00:00 22 10 Sudeste 19 Este 0 -- -- 61
2018-05-16 15:00:00 23 7 Este 14 Este 0 -- -- 50
2018-05-16 14:00:00 21.6 5 Sur 10 Sudeste 0 -- -- 57
2018-05-16 13:00:00 20.2 3 Nordeste 10 Este 0 -- -- 61
2018-05-16 12:00:00 18.3 3 Sudeste 8 Sur 0 -- -- 71
2018-05-16 11:00:00 17.8 5 Sudeste 12 Sudeste 0 -- -- 72
2018-05-16 10:00:00 17.7 5 Este 9 Este 0 -- -- 70
2018-05-16 09:00:00 14 5 Este 8 Este 0 -- -- 87
2018-05-16 08:00:00 10.4 2 Nordeste 6 Este 0 -- -- 96
2018-05-16 07:00:00 9.5 2 Noroeste 9 Noroeste 0 -- -- 95
2018-05-16 06:00:00 9.8 7 Noroeste 14 Noroeste 0 -- -- 95
2018-05-16 05:00:00 9.4 8 Noroeste 12 Noroeste 0 -- -- 97
2018-05-16 04:00:00 9.2 5 Noroeste 8 Noroeste 0 -- -- 95
2018-05-16 03:00:00 10 5 Norte 12 Noroeste 0 -- -- 95
2018-05-16 02:00:00 10.1 7 Noroeste 10 Noroeste 0 -- -- 94
2018-05-16 01:00:00 10.6 8 Oeste 12 Sudoeste 0 -- -- 94
2018-05-16 00:00:00 10.9 6 Noroeste 10 Noroeste 0 -- -- 92
2018-05-15 23:00:00 12.2 5 Noroeste 8 Noroeste 0 -- -- 91
2018-05-15 22:00:00 13.1 3 Sudoeste 6 Este 0 -- -- 89
2018-05-15 21:00:00 16 5 Sudeste 6 Sudeste 0 -- -- 76
2018-05-15 20:00:00 17.2 5 Este 15 Este 0 -- -- 68
2018-05-15 19:00:00 20 9 Este 18 Este 0 -- -- 56
2018-05-15 18:00:00 21.6 10 Este 20 Este 0 -- -- 48
2018-05-15 17:00:00 20.9 10 Este 20 Este 0 -- -- 48
2018-05-15 16:00:00 21.2 12 Este 30 Este 0 -- -- 50
2018-05-15 15:00:00 23.4 9 Este 24 Este 0 -- -- 47
2018-05-15 14:00:00 22 12 Oeste 28 Noroeste 0 -- -- 46
2018-05-15 13:00:00 20.9 17 Noroeste 36 Oeste 0 -- -- 50
2018-05-15 12:00:00 18.9 19 Noroeste 31 Oeste 0 -- -- 51
2018-05-15 11:00:00 17.5 15 Oeste 24 Oeste 0 -- -- 54
2018-05-15 10:00:00 15.7 4 Nordeste 16 Sudoeste 0 -- -- 59
2018-05-15 09:00:00 12.5 7 Sudeste 14 Sudeste 0 -- -- 76
2018-05-15 08:00:00 9.3 5 Sudeste 11 Sudeste 0 -- -- 95
2018-05-15 07:00:00 6.1 3 Este 12 Oeste 0 -- -- 96
2018-05-15 06:00:00 5.5 3 Noroeste 8 Noroeste 0 -- -- 96
2018-05-15 05:00:00 6.3 4 Sudeste 12 Noroeste 0 -- -- 94
2018-05-15 04:00:00 6.9 10 Noroeste 14 Oeste 0 -- -- 93
2018-05-15 03:00:00 7.4 9 Noroeste 14 Noroeste 0 -- -- 93
2018-05-15 02:00:00 8.7 6 Noroeste 10 Noroeste 0 -- -- 93
2018-05-15 01:00:00 7.9 7 Noroeste 9 Noroeste 0 -- -- 93
2018-05-15 00:00:00 8.7 6 Noroeste 11 Oeste 0 -- -- 92
2018-05-14 23:00:00 8.8 5 Noroeste 7 Noroeste 0 -- -- 92
2018-05-14 22:00:00 9.7 3 Oeste 9 Noroeste 0 -- -- 85
2018-05-14 21:00:00 11.5 4 Noroeste 14 Norte 0 -- -- 76
2018-05-14 20:00:00 12.8 6 Nordeste 22 Norte 0 -- -- 68
2018-05-14 19:00:00 13.5 12 Norte 23 Norte 0 -- -- 67
2018-05-14 18:00:00 14.8 11 Norte 23 Norte 0 -- -- 64
2018-05-14 17:00:00 15.9 6 Este 16 Sudeste 0 -- -- 56
2018-05-14 16:00:00 17 10 Sudeste 26 Sudeste 0 -- -- 54
2018-05-14 15:00:00 16.7 15 Sudeste 29 Sudeste 0 -- -- 55
2018-05-14 14:00:00 18.7 15 Sudeste 30 Sudeste 0 -- -- 53
2018-05-14 13:00:00 18.2 8 Sudeste 20 Este 0 -- -- 46
2018-05-14 12:00:00 16.9 6 Este 18 Este 0 -- -- 47
2018-05-14 11:00:00 15.4 10 Sudeste 16 Sudeste 0 -- -- 59
2018-05-14 10:00:00 13.4 8 Este 14 Este 0 -- -- 69
2018-05-14 09:00:00 11.1 9 Sudeste 12 Sudeste 0 -- -- 79
2018-05-14 08:00:00 8 3 Sudeste 6 Norte 0 -- -- 96
2018-05-14 07:00:00 5.3 4 Este 11 Sudoeste 0 -- -- 96
2018-05-14 06:00:00 6 11 Sudoeste 18 Oeste 0 -- -- 92
2018-05-14 05:00:00 5.2 3 Noroeste 9 Noroeste 0 -- -- 96
2018-05-14 04:00:00 5.8 4 Noroeste 11 Noroeste 0 -- -- 98
2018-05-14 03:00:00 6.2 8 Oeste 12 Oeste 0 -- -- 97
2018-05-14 02:00:00 7 5 Noroeste 13 Noroeste 0 -- -- 97
2018-05-14 01:00:00 7.3 7 Noroeste 14 Noroeste 0 -- -- 97
2018-05-11 20:00:00 -- -- -- -- -- -- -- -- --
2018-05-11 19:00:00 23.1 9 Sudeste 21 Sur 0 -- -- 61
2018-05-11 18:00:00 23.8 12 Sur 26 Sudoeste 0 -- -- 59
2018-05-11 17:00:00 23.7 15 Sudoeste 30 Sudoeste 0 -- -- 59
2018-05-11 16:00:00 23.7 14 Sur 30 Sudoeste 0 -- -- 56
2018-05-11 15:00:00 23.4 15 Sur 32 Sudoeste 0 -- -- 58
2018-05-11 14:00:00 22.9 13 Sur 32 Sur 0 -- -- 60
2018-05-11 13:00:00 21.9 16 Sur 30 Sudoeste 0 -- -- 62
2018-05-11 12:00:00 20.7 15 Sur 30 Sur 0 -- -- 65
2018-05-11 11:00:00 19.2 15 Sur 28 Sur 0 -- -- 69
2018-05-11 10:00:00 17.8 17 Sudoeste 29 Sudoeste 0 -- -- 75
2018-05-11 09:00:00 15.7 6 Sur 12 Sudoeste 0 -- -- 91
2018-05-11 08:00:00 13.2 5 Sudoeste 10 Sudoeste 0 -- -- 100
2018-05-11 07:00:00 11.3 0 Calma 4 Sur 0 -- -- 97
2018-05-11 06:00:00 13.2 0 Calma 4 Sudoeste 0 -- -- 97
2018-05-11 05:00:00 14.1 3 Sur 5 Sudoeste 0 -- -- 96
2018-05-11 04:00:00 14.5 0 Calma 4 Norte 0 -- -- 96
2018-05-11 03:00:00 14.8 0 Calma 6 Sur 0 -- -- 94
2018-05-11 02:00:00 15 4 Sur 6 Sudoeste 0 -- -- 93
2018-05-11 01:00:00 15.3 3 Sudoeste 6 Sudoeste 0 -- -- 92
2018-05-11 00:00:00 15.3 4 Oeste 6 Sudoeste 0 -- -- 92
2018-05-10 23:00:00 15.4 0 Calma 8 Sudeste 0 -- -- 91
2018-05-10 22:00:00 15.5 6 Sudeste 13 Sudeste 0 -- -- 90
2018-05-10 21:00:00 16.1 6 Sudeste 13 Sudeste 0 -- -- 87
2018-05-10 20:00:00 17.2 9 Sudeste 14 Sudeste 0 -- -- 83
2018-05-10 19:00:00 18 8 Sur 14 Sudeste 0 -- -- 80
2018-05-10 18:00:00 16.9 7 Sudeste 19 Sudeste 0 -- -- 85
2018-05-10 17:00:00 17.5 9 Sudeste 23 Sudeste 0 -- -- 83
2018-05-10 16:00:00 19.4 12 Sudeste 22 Sudeste 0 -- -- 75
2018-05-10 15:00:00 19.4 13 Sudeste 20 Sudeste 0 -- -- 76
2018-05-10 14:00:00 18.4 12 Sudeste 22 Este 0 -- -- 76
2018-05-10 13:00:00 18.7 9 Este 24 Sudeste 0 -- -- 75
2018-05-10 12:00:00 20 9 Sudeste 19 Este 0 -- -- 72
2018-05-10 11:00:00 19.3 10 Sudeste 16 Sudeste 0 -- -- 79
2018-05-10 10:00:00 18 8 Este 12 Sudeste 0 -- -- 84
2018-05-10 09:00:00 15.9 3 Oeste 6 Oeste 0 -- -- 97
2018-05-10 08:00:00 14.1 3 Oeste 6 Oeste 0 -- -- 100
2018-05-10 07:00:00 13.4 0 Calma 8 Este 0 -- -- 99
2018-05-10 06:00:00 13.3 6 Norte 11 Noroeste 0 -- -- 100
2018-05-10 05:00:00 11.9 9 Noroeste 11 Noroeste 0 -- -- 100
2018-05-10 04:00:00 12.9 0 Calma 8 Noroeste 0 -- -- 99
2018-05-10 03:00:00 13.2 4 Noroeste 10 Oeste 0 -- -- 99
2018-05-10 02:00:00 13.3 6 Noroeste 10 Noroeste 0 -- -- 99
2018-05-10 01:00:00 12.9 5 Noroeste 8 Noroeste 0 -- -- 98
2018-05-10 00:00:00 13.5 5 Noroeste 9 Noroeste 0 -- -- 99
2018-05-09 23:00:00 13.5 3 Oeste 8 Noroeste 0 -- -- 98
2018-05-09 22:00:00 14.1 0 Calma 5 Sudoeste 0 -- -- 96
2018-05-09 21:00:00 15.4 0 Calma 3 Sudeste 0 -- -- 93
2018-05-09 20:00:00 18.4 2 Oeste 4 Este 0 -- -- 88
2018-05-09 19:00:00 18.1 3 Sudeste 6 Sudoeste 0 -- -- 88
2018-05-09 18:00:00 17.8 4 Sur 8 Sudeste 0 -- -- 90
2018-05-09 17:00:00 17.6 3 Nordeste 8 Sudeste 0.8 -- -- 90
2018-05-09 16:00:00 17.7 3 Este 16 Nordeste 1.2 -- -- 89
2018-05-09 15:00:00 20.5 12 Este 23 Este 0 -- -- 71
2018-05-09 14:00:00 22.4 13 Este 22 Este 0 -- -- 63
2018-05-09 13:00:00 22.2 11 Sudeste 18 Sudeste 0 -- -- 66
2018-05-09 12:00:00 21.3 7 Sur 12 Sur 0 -- -- 67
2018-05-09 11:00:00 19.3 4 Sur 10 Sur 0 -- -- 77
2018-05-09 10:00:00 15.9 4 Sudoeste 8 Sudoeste 0 -- -- 96
2018-05-09 09:00:00 14 0 Calma 6 Noroeste 0 -- -- 100
2018-05-09 08:00:00 12.2 4 Este 9 Oeste 0 -- -- 100
2018-05-09 07:00:00 10 3 Noroeste 9 Sur 0 -- -- 99
2018-05-09 06:00:00 10.4 3 Este 9 Oeste 0 -- -- 99
2018-05-09 05:00:00 10.5 6 Noroeste 9 Noroeste 0 -- -- 99
2018-05-09 04:00:00 11.4 0 Calma 10 Noroeste 0 -- -- 98
2018-05-09 03:00:00 11.8 7 Noroeste 12 Noroeste 0 -- -- 98
2018-05-09 02:00:00 11.5 6 Oeste 8 Oeste 0 -- -- 97
2018-05-09 01:00:00 12.4 4 Noroeste 9 Oeste 0 -- -- 96
2018-05-09 00:00:00 12.9 5 Oeste 10 Noroeste 0 -- -- 95
2018-05-08 23:00:00 13.3 8 Noroeste 14 Noroeste 0 -- -- 96
2018-05-08 22:00:00 13.9 4 Oeste 9 Sudoeste 0 -- -- 93
2018-05-08 21:00:00 16.1 4 Sudoeste 8 Noroeste 0 -- -- 90
2018-05-08 20:00:00 16.8 2 Oeste 9 Este 0 -- -- 89
2018-05-08 19:00:00 16.4 2 Sur 15 Noroeste 0 -- -- 89
2018-05-08 18:00:00 16.4 11 Noroeste 19 Oeste 0.8 -- -- 83
2018-05-08 17:00:00 20.3 8 Nordeste 30 Norte 0 -- -- 57
2018-05-08 16:00:00 22.6 13 Sudeste 23 Sudeste 0 -- -- 58
2018-05-08 15:00:00 24.2 10 Este 21 Este 0 -- -- 54
2018-05-08 14:00:00 22.8 8 Sur 19 Sudeste 0 -- -- 63
2018-05-08 13:00:00 23.2 7 Sudeste 13 Este 0 -- -- 65
2018-05-08 12:00:00 20.7 5 Sur 9 Sur 0 -- -- 73
2018-05-08 11:00:00 19.7 5 Sudeste 8 Sudeste 0 -- -- 79
2018-05-08 10:00:00 17.4 4 Sudeste 6 Sudeste 0 -- -- 90
2018-05-08 09:00:00 15.7 0 Calma 4 Este 0 -- -- 94
2018-05-08 08:00:00 14.7 2 Este 9 Noroeste 0 -- -- 96
2018-05-08 07:00:00 13.6 6 Noroeste 9 Noroeste 0 -- -- 97
2018-05-08 06:00:00 12.8 3 Noroeste 9 Oeste 0 -- -- 98
2018-05-08 05:00:00 12.6 4 Oeste 11 Noroeste 0 -- -- 97
2018-05-08 04:00:00 12.6 7 Noroeste 14 Noroeste 0 -- -- 98
2018-05-08 03:00:00 12.7 2 Noroeste 10 Oeste 0 -- -- 97
2018-05-08 02:00:00 13.2 3 Noroeste 11 Noroeste 0 -- -- 97
2018-05-08 01:00:00 13 6 Oeste 8 Oeste 0 -- -- 98
2018-05-08 00:00:00 13.3 0 Calma 9 Sudeste 0 -- -- 94
2018-05-07 23:00:00 14.5 4 Noroeste 12 Oeste 0 -- -- 95
2018-05-07 22:00:00 15.5 8 Noroeste 16 Noroeste 0 -- -- 95
2018-05-07 21:00:00 16.7 0 Calma 9 Oeste 0 -- -- 93
2018-05-07 20:00:00 17.9 6 Sudoeste 15 Oeste 0 -- -- 91
2018-05-07 19:00:00 17.9 13 Noroeste 24 Norte 1.8 -- -- 91
2018-05-07 18:00:00 20.7 9 Sudeste 14 Sur 0 -- -- 68
2018-05-07 17:00:00 23.3 8 Sudeste 22 Este 0 -- -- 60
2018-05-07 16:00:00 22 7 Este 24 Sudeste 0 -- -- 62
2018-05-07 15:00:00 23.8 16 Sudeste 26 Sudeste 0 -- -- 63
2018-05-07 14:00:00 24.3 5 Este 17 Este 0 -- -- 63
2018-05-07 13:00:00 23 8 Sudeste 14 Este 0 -- -- 65
2018-05-07 12:00:00 21.8 4 Sudeste 9 Sudeste 0 -- -- 71
2018-05-07 11:00:00 19.4 6 Sudeste 10 Este 0 -- -- 82
2018-05-07 10:00:00 17.5 2 Este 4 Nordeste 0 -- -- 90
2018-05-07 09:00:00 15.6 2 Este 6 Oeste 0 -- -- 98
2018-05-07 08:00:00 14.7 4 Noroeste 6 Noroeste 0 -- -- 99
2018-05-07 07:00:00 14.1 3 Noroeste 5 Este 0 -- -- 98
2018-05-07 06:00:00 14.4 0 Calma 8 Noroeste 0 -- -- 98
2018-05-07 05:00:00 14 6 Noroeste 8 Noroeste 0 -- -- 98
2018-05-07 04:00:00 14.6 2 Noroeste 7 Noroeste 0 -- -- 98
2018-05-07 03:00:00 14.9 3 Noroeste 8 Noroeste 0 -- -- 98
2018-05-07 02:00:00 14.9 2 Sur 6 Sudeste 0 -- -- 97
2018-05-07 01:00:00 14.9 4 Noroeste 10 Oeste 0.2 -- -- 97
2018-05-07 00:00:00 15.2 8 Oeste 12 Noroeste 0 -- -- 96
2018-05-06 23:00:00 15.4 6 Noroeste 12 Noroeste 0 -- -- 96
2018-05-06 22:00:00 15.5 6 Noroeste 13 Noroeste 0 -- -- 96
2018-05-06 21:00:00 16.2 5 Noroeste 7 Noroeste 0 -- -- 93
2018-05-06 20:00:00 17.8 4 Noroeste 11 Este 0.2 -- -- 88
2018-05-06 19:00:00 19.3 6 Este 23 Sudeste 0 -- -- 73
2018-05-06 18:00:00 20.5 16 Sudeste 24 Sudeste 0 -- -- 70
2018-05-06 17:00:00 22.8 5 Sudeste 18 Sudeste 0 -- -- 65
2018-05-06 16:00:00 23 4 Sudeste 11 Sudeste 0 -- -- 65
2018-05-06 15:00:00 21.2 6 Sudeste 14 Sudeste 0 -- -- 80
2018-05-06 14:00:00 20 4 Este 13 Noroeste 0 -- -- 79
2018-05-06 13:00:00 16.6 13 Noroeste 15 Oeste 0.2 -- -- 92
2018-05-06 12:00:00 14.7 0 Calma 5 Este 0.4 -- -- 98
2018-05-06 11:00:00 13.8 0 Calma 12 Sudeste 0.8 -- -- 98
2018-05-06 10:00:00 13.6 5 Sur 9 Sudoeste 2 -- -- 98
2018-05-06 09:00:00 13.1 6 Noroeste 12 Nordeste 0.2 -- -- 99
2018-05-06 08:00:00 10.6 0 Calma 4 Sudoeste 0 -- -- 100
2018-05-06 07:00:00 9.2 0 Calma 5 Noroeste 0 -- -- 99
2018-05-06 06:00:00 9.2 2 Noroeste 4 Noroeste 0 -- -- 99
2018-05-06 05:00:00 9 3 Oeste 5 Oeste 0 -- -- 98
2018-05-06 04:00:00 9.6 0 Calma 8 Noroeste 0 -- -- 97
2018-05-06 03:00:00 10.8 3 Noroeste 10 Noroeste 0 -- -- 96
2018-05-06 02:00:00 11 6 Noroeste 9 Noroeste 0 -- -- 96
2018-05-06 01:00:00 11.1 3 Noroeste 5 Noroeste 0 -- -- 96
2018-05-06 00:00:00 11.8 2 Noroeste 4 Oeste 0 -- -- 95
2018-05-05 23:00:00 13.3 3 Sudoeste 9 Oeste 0 -- -- 92
2018-05-05 22:00:00 15.3 4 Noroeste 10 Noroeste 0 -- -- 87
2018-05-05 21:00:00 16.6 6 Noroeste 10 Oeste 0 -- -- 87
2018-05-05 20:00:00 18 8 Oeste 12 Oeste 0 -- -- 83
2018-05-05 19:00:00 19.9 5 Sudeste 8 Sur 0 -- -- 76
2018-05-05 18:00:00 19.1 4 Sudoeste 7 Oeste 0 -- -- 79
2018-05-05 17:00:00 18.6 4 Este 15 Sudeste 0.2 -- -- 82
2018-05-05 16:00:00 17.3 3 Noroeste 7 Este 0 -- -- 92
2018-05-05 15:00:00 16.3 3 Este 9 Sudeste 0 -- -- 93
2018-05-05 14:00:00 16.1 3 Este 10 Oeste 0 -- -- 94
2018-05-05 13:00:00 14.4 7 Oeste 10 Oeste 0.4 -- -- 95
2018-05-05 12:00:00 14.5 5 Sudeste 16 Oeste 2.6 -- -- 93
2018-05-05 11:00:00 14.6 2 Oeste 8 Nordeste 0 -- -- 81
2018-05-05 10:00:00 14.1 3 Este 8 Este 0 -- -- 87
2018-05-05 09:00:00 13.1 4 Sudeste 8 Sudeste 0 -- -- 96
2018-05-05 08:00:00 12 2 Sudoeste 5 Noroeste 0 -- -- 97
2018-05-05 07:00:00 11.5 0 Calma 6 Oeste 0 -- -- 97
2018-05-05 06:00:00 11.2 2 Noroeste 8 Oeste 0 -- -- 96
2018-05-05 05:00:00 11.9 4 Noroeste 6 Noroeste 0 -- -- 97
2018-05-05 04:00:00 11.2 3 Oeste 5 Sudeste 0 -- -- 95
2018-05-05 03:00:00 12.3 0 Calma 9 Oeste 0 -- -- 95
2018-05-05 02:00:00 12.9 0 Calma 11 Oeste 0 -- -- 92
2018-05-05 01:00:00 13.4 5 Noroeste 11 Noroeste 0 -- -- 88
2018-05-05 00:00:00 13.5 7 Noroeste 10 Noroeste 0 -- -- 89
2018-05-04 23:00:00 14.2 3 Noroeste 6 Oeste 0 -- -- 88
2018-05-04 22:00:00 15 3 Noroeste 9 Norte 0 -- -- 81
2018-05-04 21:00:00 15.3 6 Noroeste 8 Noroeste 0 -- -- 83
2018-05-04 20:00:00 17.4 2 Noroeste 6 Este 0 -- -- 79
2018-05-04 19:00:00 18.5 5 Sudeste 13 Sudeste 0 -- -- 65
2018-05-04 18:00:00 18.9 9 Sudeste 13 Sudeste 0 -- -- 61
2018-05-04 17:00:00 18.7 6 Sudeste 12 Este 0 -- -- 63
2018-05-04 16:00:00 18.7 5 Sudeste 12 Este 0 -- -- 62
2018-05-04 15:00:00 17.2 7 Sudeste 12 Este 0 -- -- 63
2018-05-04 14:00:00 16.8 5 Sudeste 10 Sudeste 0 -- -- 65
2018-05-04 13:00:00 15.6 4 Sur 6 Sudeste 0 -- -- 67
2018-05-04 12:00:00 14.7 6 Sur 12 Sudeste 0 -- -- 70
2018-05-04 11:00:00 15 5 Sudeste 8 Sur 0 -- -- 67
2018-05-04 10:00:00 13.9 5 Sudeste 8 Sudeste 0 -- -- 69
2018-05-04 09:00:00 12.8 6 Oeste 12 Oeste 0 -- -- 70
2018-05-04 08:00:00 11.1 4 Noroeste 12 Noroeste 0 -- -- 75
2018-05-04 07:00:00 10.7 2 Oeste 27 Oeste 0 -- -- 75
2018-05-04 06:00:00 10.6 13 Oeste 21 Oeste 0 -- -- 72
2018-05-04 05:00:00 10.7 5 Oeste 8 Noroeste 0 -- -- 81
2018-05-04 04:00:00 11.8 0 Calma 13 Oeste 0 -- -- 84
2018-05-04 03:00:00 12.4 0 Calma 6 Sur 0 -- -- 88
2018-05-04 02:00:00 12.3 5 Oeste 10 Noroeste 0 -- -- 89
2018-05-04 01:00:00 12.4 7 Noroeste 10 Noroeste 0 -- -- 90
2018-05-04 00:00:00 12.8 9 Noroeste 12 Noroeste 0 -- -- 91
2018-05-03 23:00:00 13.3 6 Oeste 10 Noroeste 0 -- -- 89
2018-05-03 22:00:00 13.8 7 Noroeste 10 Noroeste 0 -- -- 89
2018-05-03 21:00:00 14.7 3 Noroeste 5 Noroeste 0 -- -- 88
2018-05-03 20:00:00 16.5 0 Calma 9 Nordeste 0 -- -- 79
2018-05-03 19:00:00 16.6 4 Norte 10 Norte 0 -- -- 77
2018-05-03 18:00:00 16.5 4 Norte 10 Norte 0.2 -- -- 79
2018-05-03 17:00:00 16.7 4 Norte 13 Este 0 -- -- 82
2018-05-03 16:00:00 17.2 6 Nordeste 20 Noroeste 0.4 -- -- 77
2018-05-03 15:00:00 18.8 11 Noroeste 21 Oeste 0 -- -- 57
2018-05-03 14:00:00 20.9 9 Oeste 26 Oeste 0 -- -- 44
2018-05-03 13:00:00 19.6 17 Oeste 27 Oeste 0 -- -- 55
2018-05-03 12:00:00 19.7 13 Sur 22 Sudeste 0 -- -- 58
2018-05-03 11:00:00 18 8 Sudeste 15 Sudeste 0 -- -- 61
2018-05-03 10:00:00 15.2 6 Sudeste 10 Sudeste 0 -- -- 71
2018-05-03 09:00:00 11.5 0 Calma 8 Oeste 0 -- -- 83
2018-05-03 08:00:00 8.6 0 Calma 6 Noroeste 0 -- -- 94
2018-05-03 07:00:00 6 3 Noroeste 6 Sudoeste 0 -- -- 95
2018-05-03 06:00:00 7.3 3 Noroeste 13 Oeste 0 -- -- 89
2018-05-03 05:00:00 7.5 8 Noroeste 18 Noroeste 0 -- -- 89
2018-05-03 04:00:00 8 12 Noroeste 16 Noroeste 0 -- -- 88
2018-05-03 03:00:00 8.3 12 Noroeste 16 Noroeste 0 -- -- 88
2018-05-03 02:00:00 8 11 Noroeste 16 Noroeste 0 -- -- 92
2018-05-03 01:00:00 8.5 9 Noroeste 15 Oeste 0 -- -- 92
2018-05-03 00:00:00 8.5 9 Noroeste 11 Noroeste 0 -- -- 92
2018-05-02 23:00:00 10.1 7 Noroeste 10 Noroeste 0 -- -- 89
2018-05-02 22:00:00 10.6 4 Noroeste 9 Noroeste 0 -- -- 90
2018-05-02 21:00:00 12.3 2 Norte 6 Noroeste 0 -- -- 83
2018-05-02 20:00:00 17.2 4 Sur 12 Sur 0 -- -- 64
2018-05-02 19:00:00 18.1 4 Sudeste 14 Sudeste 0 -- -- 53
2018-05-02 18:00:00 18.7 9 Sudeste 27 Sudeste 0 -- -- 51
2018-05-02 17:00:00 18.5 13 Este 30 Sudeste 0 -- -- 50
2018-05-02 16:00:00 19 18 Sudeste 27 Sudeste 0 -- -- 52
2018-05-02 15:00:00 19.2 14 Sudeste 24 Sudeste 0 -- -- 43
2018-05-02 14:00:00 18.4 10 Sudeste 19 Sudeste 0 -- -- 41
2018-05-02 13:00:00 17.3 6 Sudeste 15 Sudeste 0 -- -- 50
2018-05-02 12:00:00 15.4 4 Sur 12 Sudeste 0 -- -- 56
2018-05-02 11:00:00 13.6 3 Sur 10 Este 0 -- -- 66
2018-05-02 10:00:00 11 6 Sudeste 10 Este 0 -- -- 85
2018-05-02 09:00:00 8.1 4 Este 8 Sudeste 0 -- -- 98
2018-05-02 08:00:00 5 2 Sudeste 5 Este 0 -- -- 100
2018-05-02 07:00:00 1.8 2 Oeste 7 Noroeste 0 -- -- 99
2018-05-02 06:00:00 2.7 3 Oeste 10 Noroeste 0 -- -- 99
2018-05-02 05:00:00 3.3 5 Noroeste 9 Oeste 0 -- -- 99
2018-05-02 04:00:00 3.6 5 Noroeste 12 Noroeste 0 -- -- 98
2018-05-02 03:00:00 3.5 4 Noroeste 8 Noroeste 0 -- -- 97
2018-05-02 02:00:00 3.8 5 Noroeste 10 Noroeste 0 -- -- 97
2018-05-02 01:00:00 4.7 7 Noroeste 13 Noroeste 0 -- -- 96
2018-05-02 00:00:00 5.1 5 Noroeste 12 Oeste 0 -- -- 96
2018-05-01 23:00:00 5.6 3 Oeste 11 Oeste 0 -- -- 95
2018-05-01 22:00:00 6.7 6 Oeste 13 Noroeste 0 -- -- 94
2018-05-01 21:00:00 8 6 Noroeste 12 Oeste 0 -- -- 92
2018-05-01 20:00:00 10.7 0 Calma 9 Oeste 0 -- -- 87
2018-05-01 19:00:00 10 5 Sudoeste 11 Sur 0.6 -- -- 90
2018-05-01 18:00:00 10.2 4 Sudoeste 20 Noroeste 0.8 -- -- 83
2018-05-01 17:00:00 11.5 10 Norte 22 Norte 0 -- -- 70
2018-05-01 16:00:00 14.2 5 Oeste 21 Sur 0 -- -- 67
2018-05-01 15:00:00 16.6 8 Sur 16 Sudoeste 0 -- -- 61
2018-05-01 14:00:00 14.3 5 Sudeste 11 Sur 0 -- -- 67
2018-05-01 13:00:00 12.8 3 Sudoeste 10 Sudeste 0 -- -- 74
2018-05-01 12:00:00 12 5 Sudeste 10 Sudeste 0 -- -- 82
2018-05-01 11:00:00 10.7 0 Calma 9 Sudeste 0 -- -- 93
2018-05-01 10:00:00 9.4 5 Sur 10 Noroeste 0.4 -- -- 96
2018-05-01 09:00:00 8.3 5 Oeste 9 Sudoeste 2.4 -- -- 97
2018-05-01 08:00:00 8.2 2 Sur 7 Sudoeste 0.8 -- -- 96
2018-05-01 07:00:00 7.7 7 Oeste 10 Noroeste 4.8 -- -- 96
2018-05-01 06:00:00 7.2 2 Noroeste 9 Noroeste 0 -- -- 94
2018-05-01 05:00:00 6.9 6 Noroeste 12 Oeste 0 -- -- 91
2018-05-01 04:00:00 7 7 Noroeste 12 Noroeste 0 -- -- 91
2018-05-01 03:00:00 7.1 7 Noroeste 13 Oeste 0 -- -- 91
2018-05-01 02:00:00 6.1 7 Noroeste 10 Noroeste 0 -- -- 93
2018-05-01 01:00:00 6.6 5 Noroeste 11 Noroeste 0 -- -- 91
2018-05-01 00:00:00 7.3 8 Noroeste 10 Noroeste 0 -- -- 88
2018-04-30 23:00:00 9.1 3 Oeste 9 Noroeste 0 -- -- 86
2018-04-30 22:00:00 12 5 Oeste 17 Sudoeste 0 -- -- 68
2018-04-30 21:00:00 13.2 9 Sudoeste 19 Sudoeste 0 -- -- 63
2018-04-30 20:00:00 14.5 9 Sudoeste 27 Sudoeste 0 -- -- 57
2018-04-30 19:00:00 16.7 7 Sudoeste 22 Oeste 0 -- -- 43
2018-04-30 18:00:00 16.2 14 Sudoeste 27 Oeste 0 -- -- 41
2018-04-30 17:00:00 17.8 13 Sudoeste 28 Sur 0 -- -- 39
2018-04-30 16:00:00 17.6 12 Sudoeste 27 Sudoeste 0 -- -- 39
2018-04-30 15:00:00 18.1 14 Sudoeste 29 Sur 0 -- -- 40
2018-04-30 14:00:00 16.6 14 Sudoeste 28 Sur 0 -- -- 46
2018-04-30 13:00:00 17.1 13 Sudoeste 26 Sur 0 -- -- 49
2018-04-30 12:00:00 16.7 9 Sur 23 Sur 0 -- -- 45
2018-04-30 11:00:00 14.9 12 Oeste 23 Oeste 0 -- -- 63
2018-04-30 10:00:00 14 6 Oeste 20 Sudoeste 0 -- -- 65
2018-04-30 09:00:00 10.9 5 Este 13 Este 0 -- -- 91
2018-04-30 08:00:00 6.8 3 Este 8 Este 0 -- -- 100
2018-04-30 07:00:00 4.2 3 Noroeste 8 Noroeste 0 -- -- 99
2018-04-30 06:00:00 4.8 3 Este 8 Este 0 -- -- 99
2018-04-30 05:00:00 5 3 Noroeste 8 Noroeste 0 -- -- 97
2018-04-30 04:00:00 5.9 3 Noroeste 11 Este 0 -- -- 95
2018-04-30 03:00:00 7.7 6 Sudoeste 17 Sudoeste 0 -- -- 91
2018-04-30 02:00:00 6.9 10 Sudoeste 18 Sudoeste 0 -- -- 100
2018-04-30 01:00:00 6 2 Este 6 Sudoeste 0 -- -- 98
2018-04-30 00:00:00 6.8 2 Noroeste 7 Este 0 -- -- 96
2018-04-29 23:00:00 7.7 3 Oeste 12 Sudoeste 0 -- -- 95
2018-04-29 22:00:00 8.4 9 Oeste 14 Sudoeste 0 -- -- 95
2018-04-29 21:00:00 9.8 6 Sudoeste 17 Sur 0 -- -- 91
2018-04-29 20:00:00 11.8 9 Sur 20 Sur 0 -- -- 86
2018-04-29 19:00:00 12.5 6 Sur 32 Sudoeste 0.8 -- -- 93
2018-04-29 18:00:00 12.5 16 Sur 40 Sur 1.2 -- -- 86
2018-04-29 17:00:00 12.3 6 Sur 26 Oeste 0 -- -- 93
2018-04-29 16:00:00 9 28 Oeste 55 Oeste 3.6 -- -- 97
2018-04-29 15:00:00 12.4 7 Noroeste 32 Este 0.8 -- -- 84
2018-04-29 14:00:00 15.9 7 Sudeste 18 Sudeste 0 -- -- 85
2018-04-29 13:00:00 13.4 6 Norte 50 Oeste 1.6 -- -- 94
2018-04-29 12:00:00 15.5 14 Este 33 Sudeste 0 -- -- 92
2018-04-29 11:00:00 15 18 Sudeste 31 Este 0.6 -- -- 94
2018-04-29 10:00:00 15 3 Sudeste 15 Este 0.4 -- -- 95
2018-04-29 09:00:00 14.9 7 Este 15 Nordeste 0.4 -- -- 92
2018-04-29 08:00:00 15.2 3 Nordeste 9 Norte 0 -- -- 86
2018-04-29 07:00:00 14.3 3 Norte 9 Nordeste 0 -- -- 90
2018-04-29 06:00:00 13.6 4 Noroeste 6 Noroeste 0 -- -- 96
2018-04-29 05:00:00 13.7 3 Oeste 6 Norte 0 -- -- 96
2018-04-29 04:00:00 12.9 2 Norte 9 Oeste 0 -- -- 96
2018-04-29 03:00:00 12.9 0 Calma 6 Oeste 0 -- -- 95
2018-04-29 02:00:00 13.4 6 Noroeste 10 Noroeste 0 -- -- 93
2018-04-29 01:00:00 15.2 3 Norte 6 Norte 0 -- -- 88
2018-04-29 00:00:00 16.2 2 Sudoeste 9 Sur 0 -- -- 86
2018-04-28 23:00:00 16.6 7 Sur 17 Sudoeste 0 -- -- 82
2018-04-28 22:00:00 16.9 6 Sudeste 12 Sudeste 0 -- -- 82
2018-04-28 21:00:00 17.3 5 Sudoeste 18 Este 0 -- -- 80
2018-04-28 20:00:00 18.7 10 Sudeste 21 Sudeste 0 -- -- 73
2018-04-28 19:00:00 20 13 Sudeste 22 Este 0 -- -- 69
2018-04-28 18:00:00 20.8 9 Sudeste 23 Sudeste 0 -- -- 60
2018-04-28 17:00:00 20.9 14 Sudeste 24 Sudeste 0 -- -- 60
2018-04-28 16:00:00 21.4 17 Sudeste 24 Sudeste 0 -- -- 59
2018-04-28 15:00:00 22.4 13 Sudeste 25 Sudeste 0 -- -- 52
2018-04-28 14:00:00 22.1 12 Sudeste 19 Sudeste 0 -- -- 59
2018-04-28 13:00:00 20.7 6 Sudeste 17 Sudeste 0 -- -- 61
2018-04-28 12:00:00 20.4 5 Sudeste 14 Sur 0 -- -- 64
2018-04-28 11:00:00 19.5 5 Sudeste 10 Sudeste 0 -- -- 62
2018-04-28 10:00:00 17.7 4 Norte 6 Norte 0 -- -- 83
2018-04-28 09:00:00 15.2 2 Noroeste 9 Noroeste 0 -- -- 90
2018-04-28 08:00:00 13.1 8 Noroeste 12 Noroeste 0 -- -- 98
2018-04-28 07:00:00 11.7 10 Noroeste 13 Noroeste 0 -- -- 97
2018-04-28 06:00:00 11.5 6 Noroeste 10 Noroeste 0 -- -- 98
2018-04-28 05:00:00 11.3 3 Oeste 4 Noroeste 0 -- -- 97
2018-04-28 04:00:00 12.6 2 Oeste 8 Sur 0 -- -- 94
2018-04-28 03:00:00 14.8 5 Sur 13 Noroeste 0 -- -- 90
2018-04-28 02:00:00 14.9 3 Noroeste 9 Noroeste 0 -- -- 93
2018-04-28 01:00:00 14 6 Sudoeste 10 Sudoeste 0 -- -- 96
2018-04-28 00:00:00 13.4 3 Noroeste 4 Noroeste 0 -- -- 95
2018-04-27 23:00:00 13.2 0 Calma 4 Sudeste 0 -- -- 94
2018-04-27 22:00:00 15 0 Calma 8 Oeste 0 -- -- 93
2018-04-27 21:00:00 15.7 0 Calma 7 Sur 0 -- -- 86
2018-04-27 20:00:00 17.3 4 Sur 12 Sur 0 -- -- 81
2018-04-27 19:00:00 18.2 8 Sudeste 20 Sudeste 0 -- -- 78
2018-04-27 18:00:00 20.8 12 Este 21 Sudeste 0 -- -- 67
2018-04-27 17:00:00 21.5 12 Sudeste 21 Sudeste 0 -- -- 68
2018-04-27 16:00:00 21.9 14 Sudeste 26 Este 0 -- -- 64
2018-04-27 15:00:00 24.2 19 Sudeste 28 Sudeste 0 -- -- 53
2018-04-27 14:00:00 25 11 Sudeste 21 Sudeste 0 -- -- 54
2018-04-27 13:00:00 23.2 9 Sur 20 Sudeste 0 -- -- 59
2018-04-27 12:00:00 21.7 13 Sudeste 19 Sudeste 0 -- -- 67
2018-04-27 11:00:00 20.3 9 Sudeste 17 Sudeste 0 -- -- 67
2018-04-27 10:00:00 17.3 4 Este 10 Sudeste 0 -- -- 81
2018-04-27 09:00:00 15 3 Este 4 Este 0 -- -- 89
2018-04-27 08:00:00 11 3 Noroeste 5 Sudeste 0 -- -- 99
2018-04-27 07:00:00 10 5 Noroeste 10 Noroeste 0 -- -- 96
2018-04-27 06:00:00 10.2 5 Noroeste 9 Noroeste 0 -- -- 97
2018-04-27 05:00:00 10.3 6 Noroeste 9 Noroeste 0 -- -- 96
2018-04-27 04:00:00 10.9 5 Noroeste 7 Noroeste 0 -- -- 95
2018-04-27 03:00:00 11.5 3 Noroeste 9 Noroeste 0 -- -- 95
2018-04-27 02:00:00 11.9 5 Noroeste 9 Oeste 0 -- -- 96
2018-04-27 01:00:00 12 5 Noroeste 8 Noroeste 0 -- -- 95
2018-04-27 00:00:00 13 0 Calma 6 Noroeste 0 -- -- 95
2018-04-26 23:00:00 13.9 6 Oeste 13 Sudoeste 0 -- -- 91
2018-04-26 22:00:00 16.1 7 Sur 15 Sur 0 -- -- 84
2018-04-26 21:00:00 17.4 4 Sur 10 Sudeste 0 -- -- 83
2018-04-26 20:00:00 18.4 8 Sudeste 14 Sudeste 0 -- -- 80
2018-04-26 19:00:00 19.7 11 Sudeste 17 Sudeste 0 -- -- 74
2018-04-26 18:00:00 20.9 10 Sur 17 Sudeste 0 -- -- 70
2018-04-26 17:00:00 21.2 12 Sur 20 Sudeste 0 -- -- 71
2018-04-26 16:00:00 20.9 14 Sudeste 29 Sudeste 0 -- -- 73
2018-04-26 15:00:00 22 21 Sudeste 30 Sudeste 0 -- -- 69
2018-04-26 14:00:00 23.4 8 Sudeste 20 Este 0 -- -- 54
2018-04-26 13:00:00 22.6 7 Sudeste 21 Este 0 -- -- 54
2018-04-26 12:00:00 21.4 12 Sudeste 20 Este 0 -- -- 61
2018-04-26 11:00:00 20.2 7 Este 13 Este 0 -- -- 66
2018-04-26 10:00:00 18.6 5 Este 11 Sudeste 0 -- -- 72
2018-04-26 09:00:00 15.8 3 Este 6 Sudeste 0 -- -- 83
2018-04-26 08:00:00 12.1 0 Calma 10 Oeste 0 -- -- 95
2018-04-26 07:00:00 10.6 5 Noroeste 9 Noroeste 0 -- -- 94
2018-04-26 06:00:00 11.4 3 Noroeste 12 Noroeste 0 -- -- 93
2018-04-26 05:00:00 11.8 4 Noroeste 9 Noroeste 0 -- -- 93
2018-04-26 04:00:00 12.7 0 Calma 12 Oeste 0 -- -- 90
2018-04-26 03:00:00 12.7 7 Noroeste 10 Noroeste 0 -- -- 89
2018-04-26 02:00:00 12.6 6 Noroeste 12 Noroeste 0 -- -- 87
2018-04-26 01:00:00 13.3 7 Noroeste 9 Oeste 0 -- -- 86
2018-04-26 00:00:00 14.1 5 Noroeste 11 Noroeste 0 -- -- 85
2018-04-25 23:00:00 16.7 0 Calma 9 Noroeste 0 -- -- 81
2018-04-25 22:00:00 17.2 5 Noroeste 7 Noroeste 0 -- -- 81
2018-04-25 21:00:00 18.4 0 Calma 5 Oeste 0 -- -- 79
2018-04-25 20:00:00 19.4 5 Oeste 10 Sur 0 -- -- 78
2018-04-25 19:00:00 21.5 6 Sudeste 14 Este 0 -- -- 64
2018-04-25 18:00:00 22.1 7 Este 20 Sudeste 0 -- -- 58
2018-04-25 17:00:00 22.5 12 Este 27 Este 0 -- -- 54
2018-04-25 16:00:00 23.8 11 Sudeste 25 Sudeste 0 -- -- 52
2018-04-25 15:00:00 24.6 12 Sudeste 27 Sudeste 0 -- -- 55
2018-04-25 14:00:00 26.1 16 Este 26 Este 0 -- -- 41
2018-04-25 13:00:00 25.8 5 Sudeste 15 Sudeste 0 -- -- 53
2018-04-25 12:00:00 24.5 5 Sudeste 12 Sudeste 0 -- -- 56
2018-04-25 11:00:00 21.9 5 Sudeste 10 Nordeste 0 -- -- 63
2018-04-25 10:00:00 19.3 4 Este 6 Sudeste 0 -- -- 71
2018-04-25 09:00:00 15.7 4 Este 9 Sudeste 0 -- -- 84
2018-04-25 08:00:00 12.9 10 Sudeste 17 Noroeste 0 -- -- 91
2018-04-25 07:00:00 10.9 12 Noroeste 16 Noroeste 0 -- -- 96
2018-04-25 06:00:00 10.9 3 Este 9 Noroeste 0 -- -- 91
2018-04-25 05:00:00 11.5 5 Noroeste 12 Noroeste 0 -- -- 88
2018-04-25 04:00:00 11.8 5 Noroeste 12 Noroeste 0 -- -- 88
2018-04-25 03:00:00 11.8 9 Noroeste 12 Noroeste 0 -- -- 88
2018-04-25 02:00:00 12.1 6 Noroeste 13 Noroeste 0 -- -- 88
2018-04-25 01:00:00 12.6 9 Noroeste 13 Noroeste 0 -- -- 86
2018-04-25 00:00:00 12.7 4 Noroeste 13 Noroeste 0 -- -- 89
2018-04-24 23:00:00 14 8 Noroeste 10 Noroeste 0 -- -- 84
2018-04-24 22:00:00 14.3 5 Noroeste 7 Noroeste 0 -- -- 86
2018-04-24 21:00:00 15.4 0 Calma 7 Sudeste 0 -- -- 85
2018-04-24 20:00:00 20.9 4 Sudeste 10 Sur 0 -- -- 64
2018-04-24 19:00:00 22 9 Sudeste 16 Sudeste 0 -- -- 62
2018-04-24 18:00:00 23.2 9 Sudeste 21 Sudeste 0 -- -- 59
2018-04-24 17:00:00 24.4 9 Sur 21 Sudeste 0 -- -- 54
2018-04-24 16:00:00 23.9 17 Sudeste 24 Sudeste 0 -- -- 54
2018-04-24 15:00:00 24.9 14 Sudeste 21 Sudeste 0 -- -- 54
2018-04-24 14:00:00 25.2 5 Sudeste 17 Este 0 -- -- 47
2018-04-24 13:00:00 24.1 9 Este 21 Este 0 -- -- 56
2018-04-24 12:00:00 22.1 8 Sudeste 12 Sudeste 0 -- -- 66
2018-04-24 11:00:00 20.5 5 Sudeste 8 Sudeste 0 -- -- 70
2018-04-24 10:00:00 17.4 3 Este 8 Sudeste 0 -- -- 74
2018-04-24 09:00:00 14.1 3 Este 5 Este 0 -- -- 88
2018-04-24 08:00:00 12.2 3 Norte 14 Noroeste 0 -- -- 91
2018-04-24 07:00:00 10.8 5 Noroeste 8 Noroeste 0 -- -- 92
2018-04-24 06:00:00 11.3 3 Noroeste 13 Noroeste 0 -- -- 89
2018-04-24 05:00:00 11 5 Noroeste 11 Noroeste 0 -- -- 91
2018-04-24 04:00:00 11.1 3 Noroeste 7 Noroeste 0 -- -- 90
2018-04-24 03:00:00 12.1 5 Noroeste 10 Noroeste 0 -- -- 87
2018-04-24 02:00:00 13 6 Noroeste 12 Oeste 0 -- -- 82
2018-04-24 01:00:00 13.4 8 Noroeste 17 Oeste 0 -- -- 80
2018-04-24 00:00:00 13.2 10 Noroeste 15 Noroeste 0 -- -- 82
2018-04-23 23:00:00 13.7 9 Noroeste 13 Noroeste 0 -- -- 81
2018-04-23 22:00:00 14 9 Noroeste 14 Noroeste 0 -- -- 83
2018-04-23 21:00:00 15.3 4 Noroeste 5 Noroeste 0 -- -- 81
2018-04-23 20:00:00 19.7 3 Sur 9 Sudeste 0 -- -- 71
2018-04-23 19:00:00 20.1 8 Sudeste 14 Sudeste 0 -- -- 61
2018-04-23 18:00:00 21.4 10 Sudeste 18 Sur 0 -- -- 59
2018-04-23 17:00:00 21.9 16 Sudeste 21 Sudeste 0 -- -- 55
2018-04-23 16:00:00 22.7 15 Sudeste 21 Sudeste 0 -- -- 54
2018-04-23 15:00:00 23.3 11 Sudeste 17 Sudeste 0 -- -- 56
2018-04-23 14:00:00 23.6 8 Este 17 Sudeste 0 -- -- 48
2018-04-23 13:00:00 22.9 6 Sudeste 11 Sudeste 0 -- -- 50
2018-04-23 12:00:00 21 5 Sudeste 10 Sudeste 0 -- -- 59
2018-04-23 11:00:00 20.1 3 Sudeste 6 Sudeste 0 -- -- 63
2018-04-23 10:00:00 18.1 5 Sudeste 9 Sudeste 0 -- -- 67
2018-04-23 09:00:00 14.2 2 Oeste 6 Sudoeste 0 -- -- 80
2018-04-23 08:00:00 11.7 3 Oeste 5 Noroeste 0 -- -- 86
2018-04-23 07:00:00 10.8 0 Calma 10 Noroeste 0 -- -- 87
2018-04-23 06:00:00 10.4 8 Noroeste 10 Noroeste 0 -- -- 85
2018-04-23 05:00:00 10 5 Noroeste 12 Noroeste 0 -- -- 86
2018-04-23 04:00:00 10.9 7 Noroeste 11 Noroeste 0 -- -- 82
2018-04-23 03:00:00 10.8 4 Noroeste 12 Noroeste 0 -- -- 84
2018-04-23 02:00:00 11 8 Noroeste 13 Noroeste 0 -- -- 84
2018-04-23 01:00:00 12 10 Noroeste 15 Oeste 0 -- -- 77
2018-04-23 00:00:00 12.7 9 Noroeste 15 Noroeste 0 -- -- 75
2018-04-22 23:00:00 12.9 9 Noroeste 15 Noroeste 0 -- -- 76
2018-04-22 22:00:00 13.4 8 Noroeste 10 Noroeste 0 -- -- 78
2018-04-22 21:00:00 16.9 3 Sur 15 Sudoeste 0 -- -- 68
2018-04-22 20:00:00 20.8 8 Sur 21 Sur 0 -- -- 45
2018-04-22 19:00:00 21.6 12 Sudeste 27 Sudeste 0 -- -- 52
2018-04-22 18:00:00 22.8 15 Sudeste 26 Este 0 -- -- 49
2018-04-22 17:00:00 23.8 15 Sudeste 31 Sudeste 0 -- -- 53
2018-04-22 16:00:00 23.7 21 Sudeste 30 Sudeste 0 -- -- 50
2018-04-22 15:00:00 24.2 19 Sudeste 30 Este 0 -- -- 53
2018-04-22 14:00:00 24 13 Sudeste 23 Sudeste 0 -- -- 55
2018-04-22 13:00:00 23 10 Sur 22 Sudeste 0 -- -- 53
2018-04-22 12:00:00 20.7 8 Sudeste 13 Sudeste 0 -- -- 64
2018-04-22 11:00:00 18.1 3 Este 9 Este 0 -- -- 68
2018-04-22 10:00:00 15.4 2 Sudeste 4 Sudeste 0 -- -- 79
2018-04-22 09:00:00 12.6 2 Noroeste 3 Noroeste 0 -- -- 90
2018-04-22 08:00:00 9.8 0 Calma 5 Noroeste 0 -- -- 93
2018-04-22 07:00:00 8.8 0 Calma 7 Noroeste 0 -- -- 93
2018-04-22 06:00:00 9 2 Noroeste 7 Noroeste 0 -- -- 90
2018-04-22 05:00:00 9.9 5 Noroeste 10 Noroeste 0 -- -- 88
2018-04-22 04:00:00 10.2 6 Noroeste 10 Noroeste 0 -- -- 86
2018-04-22 03:00:00 10.5 6 Noroeste 10 Noroeste 0 -- -- 86
2018-04-22 02:00:00 11.1 7 Noroeste 11 Noroeste 0 -- -- 84
2018-04-22 01:00:00 11.1 9 Noroeste 12 Noroeste 0 -- -- 86
2018-04-22 00:00:00 11.5 8 Noroeste 11 Noroeste 0 -- -- 85